createdAt,value
2022-09-16T00:02:13.086Z,1.50
2022-09-16T00:04:40.228Z,1.50
2022-09-16T00:07:06.559Z,0.95
2022-09-16T00:09:32.971Z,1.13
2022-09-16T00:11:59.304Z,1.40
2022-09-16T00:14:25.670Z,1.20
2022-09-16T00:16:51.994Z,1.20
2022-09-16T00:19:18.388Z,1.35
2022-09-16T00:21:46.869Z,1.20
2022-09-16T00:24:14.082Z,1.23
2022-09-16T00:26:40.501Z,1.25
2022-09-16T00:29:06.978Z,1.25
2022-09-16T00:31:33.432Z,1.65
2022-09-16T00:33:59.769Z,1.50
2022-09-16T00:36:26.333Z,1.38
2022-09-16T00:38:54.896Z,1.85
2022-09-16T00:41:23.657Z,1.30
2022-09-16T00:43:58.370Z,1.80
2022-09-16T00:46:32.078Z,1.42
2022-09-16T00:49:01.036Z,1.10
2022-09-16T00:51:28.939Z,1.60
2022-09-16T00:53:57.122Z,1.80
2022-09-16T00:56:24.711Z,1.60
2022-09-16T00:58:54.897Z,2.30
2022-09-16T01:01:21.656Z,1.00
2022-09-16T01:03:55.305Z,2.05
2022-09-16T01:06:24.222Z,1.77
2022-09-16T01:08:51.136Z,1.83
2022-09-16T01:11:17.883Z,1.50
2022-09-16T01:13:44.901Z,1.70
2022-09-16T01:16:36.306Z,1.60
2022-09-16T01:19:14.043Z,1.25
2022-09-16T01:22:06.491Z,1.17
2022-09-16T01:24:38.631Z,1.00
2022-09-16T01:27:10.975Z,1.30
2022-09-16T01:29:56.073Z,1.42
2022-09-16T01:32:25.570Z,1.50
2022-09-16T01:37:45.005Z,1.73
2022-09-16T01:40:19.043Z,1.35
2022-09-16T01:42:48.569Z,1.58
2022-09-16T01:45:14.863Z,1.00
2022-09-16T01:47:51.937Z,1.30
2022-09-16T01:50:24.208Z,1.55
2022-09-16T01:53:09.281Z,1.25
2022-09-16T01:55:41.127Z,1.17
2022-09-16T01:58:07.432Z,1.05
2022-09-16T02:00:34.037Z,1.13
2022-09-16T02:03:03.998Z,1.13
2022-09-16T02:05:46.221Z,1.30
2022-09-16T02:08:14.243Z,1.05
2022-09-16T02:10:45.197Z,1.23
2022-09-16T02:13:15.151Z,0.90
2022-09-16T02:15:42.184Z,1.33
2022-09-16T02:18:11.193Z,1.50
2022-09-16T02:20:39.974Z,0.90
2022-09-16T02:23:08.826Z,1.08
2022-09-16T02:25:36.259Z,1.38
2022-09-16T02:28:04.469Z,1.10
2022-09-16T02:30:31.434Z,0.90
2022-09-16T02:33:00.232Z,0.93
2022-09-16T02:35:27.741Z,1.60
2022-09-16T02:37:57.526Z,1.08
2022-09-16T02:40:33.182Z,2.03
2022-09-16T02:43:00.106Z,1.58
2022-09-16T02:45:31.977Z,1.02
2022-09-16T02:48:33.845Z,1.13
2022-09-16T02:51:03.572Z,1.00
2022-09-16T02:53:29.954Z,1.42
2022-09-16T02:56:02.420Z,1.10
2022-09-16T02:58:29.686Z,1.40
2022-09-16T03:00:57.152Z,1.00
2022-09-16T03:03:23.828Z,1.10
2022-09-16T03:06:22.692Z,1.45
2022-09-16T03:08:50.078Z,0.88
2022-09-16T03:11:19.118Z,0.70
2022-09-16T03:13:59.518Z,0.93
2022-09-16T03:16:34.317Z,0.88
2022-09-16T03:19:08.445Z,1.70
2022-09-16T03:21:37.908Z,1.30
2022-09-16T03:26:45.488Z,1.10
2022-09-16T03:29:18.040Z,0.90
2022-09-16T03:32:06.915Z,0.98
2022-09-16T03:34:39.851Z,1.00
2022-09-16T03:37:08.803Z,0.73
2022-09-16T03:39:35.687Z,0.73
2022-09-16T03:42:06.080Z,0.70
2022-09-16T03:44:33.624Z,1.00
2022-09-16T03:47:00.025Z,1.20
2022-09-16T03:49:26.385Z,0.80
2022-09-16T03:51:52.712Z,1.30
2022-09-16T03:54:19.039Z,1.25
2022-09-16T03:56:45.336Z,1.13
2022-09-16T03:59:11.672Z,1.73
2022-09-16T04:01:38.043Z,0.90
2022-09-16T04:04:04.468Z,0.80
2022-09-16T04:06:30.841Z,0.90
2022-09-16T04:08:59.208Z,1.70
2022-09-16T04:11:25.690Z,0.80
2022-09-16T04:13:52.396Z,0.77
2022-09-16T04:16:20.148Z,0.60
2022-09-16T04:18:47.005Z,0.95
2022-09-16T04:21:13.420Z,1.02
2022-09-16T04:23:39.734Z,0.90
2022-09-16T04:26:06.060Z,0.60
2022-09-16T04:28:33.005Z,0.60
2022-09-16T04:31:06.450Z,1.08
2022-09-16T04:33:33.671Z,0.80
2022-09-16T04:36:08.608Z,0.63
2022-09-16T04:38:35.588Z,0.90
2022-09-16T04:41:09.121Z,0.65
2022-09-16T04:43:35.519Z,0.75
2022-09-16T04:46:02.333Z,0.82
2022-09-16T04:48:29.211Z,0.57
2022-09-16T04:51:01.514Z,0.80
2022-09-16T04:53:27.880Z,0.80
2022-09-16T04:55:54.258Z,0.90
2022-09-16T04:58:20.705Z,0.93
2022-09-16T05:00:47.174Z,0.93
2022-09-16T05:03:13.558Z,1.40
2022-09-16T05:05:39.964Z,1.05
2022-09-16T05:08:06.458Z,1.38
2022-09-16T05:10:32.756Z,0.90
2022-09-16T05:13:01.043Z,1.05
2022-09-16T05:15:27.769Z,1.20
2022-09-16T05:17:54.162Z,1.02
2022-09-16T05:20:20.668Z,1.20
2022-09-16T05:22:48.606Z,1.02
2022-09-16T05:25:14.982Z,0.90
2022-09-16T05:27:41.412Z,0.70
2022-09-16T05:30:08.057Z,0.80
2022-09-16T05:32:34.459Z,0.57
2022-09-16T05:35:00.838Z,0.63
2022-09-16T05:37:27.167Z,0.75
2022-09-16T05:39:54.061Z,0.77
2022-09-16T05:42:20.476Z,0.93
2022-09-16T05:44:46.824Z,0.70
2022-09-16T05:47:13.180Z,0.70
2022-09-16T05:49:39.536Z,0.65
2022-09-16T05:52:05.939Z,0.40
2022-09-16T05:54:32.278Z,0.40
2022-09-16T05:57:02.206Z,1.20
2022-09-16T05:59:30.946Z,0.75
2022-09-16T06:01:57.257Z,0.60
2022-09-16T06:04:23.639Z,1.00
2022-09-16T06:06:50.034Z,0.70
2022-09-16T06:09:23.719Z,0.65
2022-09-16T06:11:51.394Z,0.75
2022-09-16T06:14:29.054Z,1.10
2022-09-16T06:17:01.670Z,0.95
2022-09-16T06:19:28.055Z,0.60
2022-09-16T06:21:54.423Z,0.88
2022-09-16T06:24:21.216Z,0.73
2022-09-16T06:26:48.365Z,0.50
2022-09-16T06:29:15.492Z,0.50
2022-09-16T06:31:42.428Z,0.70
2022-09-16T06:34:13.605Z,0.57
2022-09-16T06:36:44.695Z,0.68
2022-09-16T06:39:13.276Z,0.45
2022-09-16T06:41:39.812Z,0.68
2022-09-16T06:44:07.628Z,0.50
2022-09-16T06:46:33.992Z,0.50
2022-09-16T06:49:04.555Z,0.70
2022-09-16T06:51:34.789Z,0.60
2022-09-16T06:54:05.048Z,0.80
2022-09-16T06:56:31.756Z,0.57
2022-09-16T06:58:58.153Z,0.70
2022-09-16T07:01:31.003Z,1.20
2022-09-16T07:03:58.470Z,0.70
2022-09-16T07:06:49.621Z,0.88
2022-09-16T07:09:14.549Z,0.90
2022-09-16T07:11:40.904Z,0.98
2022-09-16T07:14:07.960Z,1.02
2022-09-16T07:16:34.451Z,0.90
2022-09-16T07:19:01.436Z,1.27
2022-09-16T07:21:30.871Z,0.98
2022-09-16T07:26:26.533Z,0.80
2022-09-16T07:28:53.597Z,1.43
2022-09-16T07:31:21.555Z,0.80
2022-09-16T07:33:49.146Z,1.00
2022-09-16T07:36:20.099Z,0.90
2022-09-16T07:38:46.933Z,1.45
2022-09-16T07:41:14.921Z,1.10
2022-09-16T07:43:42.011Z,0.75
2022-09-16T07:46:09.077Z,0.90
2022-09-16T07:48:35.682Z,1.10
2022-09-16T07:51:03.513Z,1.10
2022-09-16T07:53:30.456Z,1.52
2022-09-16T07:55:57.201Z,0.95
2022-09-16T07:58:23.541Z,0.82
2022-09-16T08:00:50.209Z,0.88
2022-09-16T08:03:16.689Z,0.80
2022-09-16T08:05:43.109Z,0.73
2022-09-16T08:08:09.455Z,0.80
2022-09-16T08:10:37.229Z,0.80
2022-09-16T08:13:04.517Z,0.80
2022-09-16T08:15:30.990Z,0.73
2022-09-16T08:17:57.361Z,0.70
2022-09-16T08:20:25.465Z,1.05
2022-09-16T08:22:57.393Z,0.70
2022-09-16T08:25:24.693Z,1.00
2022-09-16T08:27:54.106Z,0.60
2022-09-16T08:30:22.622Z,0.50
2022-09-16T08:32:55.145Z,0.52
2022-09-16T08:35:21.456Z,0.50
2022-09-16T08:37:50.157Z,1.30
2022-09-16T08:40:18.499Z,0.70
2022-09-16T08:42:55.910Z,0.70
2022-09-16T08:45:43.133Z,1.05
2022-09-16T08:48:28.908Z,0.50
2022-09-16T08:50:57.124Z,0.43
2022-09-16T08:53:29.900Z,0.70
2022-09-16T08:55:56.257Z,0.45
2022-09-16T08:58:26.819Z,0.47
2022-09-16T09:00:55.105Z,0.70
2022-09-16T09:03:30.187Z,0.60
2022-09-16T09:05:57.833Z,0.77
2022-09-16T09:08:24.194Z,0.75
2022-09-16T09:11:16.961Z,0.57
2022-09-16T09:13:50.999Z,0.63
2022-09-16T09:16:20.213Z,0.60
2022-09-16T09:18:52.674Z,0.47
2022-09-16T09:21:27.480Z,1.40
2022-09-16T09:24:09.094Z,1.40
2022-09-16T09:26:35.434Z,0.95
2022-09-16T09:29:01.779Z,0.75
2022-09-16T09:31:34.144Z,0.60
2022-09-16T09:34:16.910Z,0.77
2022-09-16T09:37:01.987Z,0.80
2022-09-16T09:39:46.527Z,0.80
2022-09-16T09:42:21.640Z,0.80
2022-09-16T09:44:56.189Z,1.05
2022-09-16T09:47:32.618Z,0.80
2022-09-16T09:50:02.647Z,0.90
2022-09-16T09:52:36.109Z,1.02
2022-09-16T09:55:16.132Z,1.08
2022-09-16T09:58:01.665Z,0.80
2022-09-16T10:00:28.181Z,0.98
2022-09-16T10:03:02.668Z,0.80
2022-09-16T10:05:29.235Z,1.10
2022-09-16T10:07:57.404Z,0.65
2022-09-16T10:10:24.792Z,0.60
2022-09-16T10:12:51.728Z,0.88
2022-09-16T10:15:27.191Z,0.73
2022-09-16T10:17:54.411Z,0.60
2022-09-16T10:20:26.860Z,0.90
2022-09-16T10:23:09.429Z,0.90
2022-09-16T10:25:38.771Z,0.80
2022-09-16T10:30:42.088Z,0.70
2022-09-16T10:33:17.381Z,0.70
2022-09-16T10:35:51.434Z,0.73
2022-09-16T10:38:19.328Z,0.65
2022-09-16T10:41:06.210Z,0.90
2022-09-16T10:43:32.549Z,0.82
2022-09-16T10:45:59.163Z,0.85
2022-09-16T10:48:29.214Z,0.90
2022-09-16T10:50:56.596Z,1.00
2022-09-16T10:53:27.187Z,1.40
2022-09-16T10:56:04.342Z,1.00
2022-09-16T10:58:30.781Z,0.98
2022-09-16T11:01:13.261Z,1.02
2022-09-16T11:03:43.191Z,1.38
2022-09-16T11:06:28.142Z,1.00
2022-09-16T11:08:54.535Z,2.03
2022-09-16T11:11:23.272Z,1.40
2022-09-16T11:14:08.574Z,1.17
2022-09-16T11:16:35.079Z,0.82
2022-09-16T11:19:12.183Z,1.08
2022-09-16T11:21:57.177Z,0.90
2022-09-16T11:24:27.124Z,1.27
2022-09-16T11:27:07.656Z,0.80
2022-09-16T11:29:54.279Z,1.00
2022-09-16T11:32:23.406Z,1.10
2022-09-16T11:35:17.678Z,1.08
2022-09-16T11:37:47.006Z,1.10
2022-09-16T11:40:36.465Z,0.80
2022-09-16T11:43:11.859Z,1.10
2022-09-16T11:45:38.232Z,0.80
2022-09-16T11:48:13.567Z,0.70
2022-09-16T11:50:57.568Z,1.13
2022-09-16T11:53:27.753Z,0.88
2022-09-16T11:56:01.055Z,1.00
2022-09-16T11:58:33.300Z,0.95
2022-09-16T12:01:03.201Z,0.90
2022-09-16T12:03:39.223Z,1.00
2022-09-16T12:06:11.270Z,0.80
2022-09-16T12:09:11.045Z,0.90
2022-09-16T12:11:39.821Z,0.90
2022-09-16T12:14:10.577Z,1.17
2022-09-16T12:17:03.555Z,1.05
2022-09-16T12:19:29.876Z,0.90
2022-09-16T12:21:59.420Z,1.10
2022-09-16T12:24:44.765Z,1.00
2022-09-16T12:27:11.284Z,1.08
2022-09-16T12:29:53.745Z,1.10
2022-09-16T12:32:23.906Z,1.10
2022-09-16T12:34:55.616Z,1.00
2022-09-16T12:37:32.852Z,1.38
2022-09-16T12:40:00.365Z,0.77
2022-09-16T12:42:46.718Z,1.13
2022-09-16T12:45:22.366Z,1.10
2022-09-16T12:47:58.826Z,1.23
2022-09-16T12:50:27.953Z,1.30
2022-09-16T12:53:12.945Z,1.45
2022-09-16T12:55:39.691Z,1.75
2022-09-16T12:58:06.036Z,1.20
2022-09-16T13:00:39.529Z,1.02
2022-09-16T13:03:27.655Z,1.05
2022-09-16T13:05:54.857Z,1.00
2022-09-16T13:08:23.238Z,0.80
2022-09-16T13:11:18.489Z,0.90
2022-09-16T13:13:48.551Z,1.20
2022-09-16T13:16:14.947Z,1.13
2022-09-16T13:18:43.711Z,1.13
2022-09-16T13:23:41.229Z,1.33
2022-09-16T13:26:08.798Z,1.05
2022-09-16T13:28:35.314Z,1.20
2022-09-16T13:31:20.873Z,1.15
2022-09-16T13:33:48.670Z,1.40
2022-09-16T13:36:20.835Z,1.08
2022-09-16T13:38:49.818Z,1.00
2022-09-16T13:43:42.396Z,1.20
2022-09-16T13:46:08.760Z,1.55
2022-09-16T13:48:37.699Z,0.68
2022-09-16T13:51:07.588Z,0.40
2022-09-16T13:53:34.661Z,0.47
2022-09-16T13:56:18.918Z,0.60
2022-09-16T13:58:51.511Z,2.67
2022-09-16T14:01:55.493Z,3.25
2022-09-16T14:04:34.531Z,7.90
2022-09-16T14:07:21.493Z,7.82
2022-09-16T14:09:54.836Z,2.65
2022-09-16T14:12:29.515Z,2.28
2022-09-16T14:14:58.319Z,1.00
2022-09-16T14:17:31.415Z,1.10
2022-09-16T14:19:58.995Z,0.80
2022-09-16T14:22:27.472Z,0.85
2022-09-16T14:25:05.787Z,0.80
2022-09-16T14:27:43.364Z,0.60
2022-09-16T14:30:14.981Z,0.80
2022-09-16T14:32:41.444Z,1.10
2022-09-16T14:35:15.300Z,1.20
2022-09-16T14:37:44.244Z,1.10
2022-09-16T14:40:13.046Z,1.23
2022-09-16T14:42:44.818Z,0.70
2022-09-16T14:45:16.341Z,0.60
2022-09-16T14:47:52.288Z,0.50
2022-09-16T14:50:27.454Z,1.20
2022-09-16T14:52:55.728Z,1.45
2022-09-16T14:55:23.866Z,1.25
2022-09-16T14:57:50.375Z,0.82
2022-09-16T15:00:17.359Z,1.20
2022-09-16T15:02:46.355Z,0.90
2022-09-16T15:05:20.642Z,1.60
2022-09-16T15:08:12.347Z,1.02
2022-09-16T15:10:51.613Z,0.60
2022-09-16T15:13:20.120Z,0.70
2022-09-16T15:15:48.709Z,0.50
2022-09-16T15:18:21.184Z,0.70
2022-09-16T15:20:51.596Z,0.60
2022-09-16T15:23:23.559Z,0.70
2022-09-16T15:25:54.451Z,0.80
2022-09-16T15:28:21.291Z,0.60
2022-09-16T15:30:49.758Z,0.88
2022-09-16T15:33:42.803Z,0.47
2022-09-16T15:36:28.381Z,0.50
2022-09-16T15:38:57.812Z,0.50
2022-09-16T15:41:24.156Z,0.50
2022-09-16T15:43:50.557Z,0.38
2022-09-16T15:46:22.098Z,0.50
2022-09-16T15:48:51.584Z,0.60
2022-09-16T15:53:45.923Z,0.70
2022-09-16T15:56:21.239Z,0.68
2022-09-16T15:58:48.444Z,0.75
2022-09-16T16:01:21.009Z,0.65
2022-09-16T16:03:57.417Z,0.63
2022-09-16T16:06:42.479Z,0.47
2022-09-16T16:09:28.054Z,0.60
2022-09-16T16:11:58.535Z,1.10
2022-09-16T16:14:33.053Z,0.90
2022-09-16T16:17:13.537Z,0.80
2022-09-16T16:19:43.829Z,1.17
2022-09-16T16:22:10.314Z,0.75
2022-09-16T16:24:37.891Z,0.80
2022-09-16T16:27:04.774Z,0.90
2022-09-16T16:29:31.569Z,1.02
2022-09-16T16:32:08.460Z,0.93
2022-09-16T16:34:35.977Z,0.70
2022-09-16T16:37:02.578Z,1.13
2022-09-16T16:39:28.982Z,0.90
2022-09-16T16:41:55.401Z,1.30
2022-09-16T16:44:22.802Z,0.82
2022-09-16T16:46:50.308Z,0.65
2022-09-16T16:49:16.842Z,0.73
2022-09-16T16:51:43.172Z,1.30
2022-09-16T16:54:10.958Z,0.82
2022-09-16T16:56:40.154Z,0.85
2022-09-16T16:59:07.642Z,0.80
2022-09-16T17:01:35.344Z,1.00
2022-09-16T17:04:02.785Z,0.80
2022-09-16T17:06:29.851Z,0.90
2022-09-16T17:08:56.734Z,0.60
2022-09-16T17:11:23.713Z,0.90
2022-09-16T17:13:51.764Z,0.90
2022-09-16T17:16:20.464Z,0.88
2022-09-16T17:18:47.407Z,0.80
2022-09-16T17:21:14.959Z,0.68
2022-09-16T17:23:41.438Z,0.75
2022-09-16T17:26:11.279Z,0.60
2022-09-16T17:28:41.146Z,0.98
2022-09-16T17:31:12.010Z,0.73
2022-09-16T17:33:38.882Z,0.65
2022-09-16T17:36:06.913Z,0.52
2022-09-16T17:38:33.802Z,0.80
2022-09-16T17:41:01.317Z,0.77
2022-09-16T17:43:32.013Z,0.60
2022-09-16T17:45:59.679Z,0.77
2022-09-16T17:48:26.119Z,0.55
2022-09-16T17:50:53.089Z,0.70
2022-09-16T17:53:19.685Z,0.90
2022-09-16T17:55:46.511Z,0.70
2022-09-16T17:58:12.943Z,0.73
2022-09-16T18:00:39.368Z,0.60
2022-09-16T18:03:06.748Z,0.70
2022-09-16T18:05:33.938Z,0.80
2022-09-16T18:08:00.429Z,0.90
2022-09-16T18:10:27.339Z,1.35
2022-09-16T18:12:53.689Z,1.98
2022-09-16T18:15:20.038Z,2.30
2022-09-16T18:17:46.398Z,2.58
2022-09-16T18:20:12.747Z,2.40
2022-09-16T18:22:39.111Z,2.10
2022-09-16T18:25:05.700Z,2.10
2022-09-16T18:27:32.167Z,1.55
2022-09-16T18:29:58.563Z,1.95
2022-09-16T18:32:24.868Z,1.20
2022-09-16T18:34:51.694Z,0.90
2022-09-16T18:37:18.007Z,1.65
2022-09-16T18:39:44.735Z,2.20
2022-09-16T18:42:11.108Z,1.20
2022-09-16T18:44:37.428Z,1.35
2022-09-16T18:47:03.807Z,0.90
2022-09-16T18:49:30.212Z,0.63
2022-09-16T18:51:56.737Z,0.88
2022-09-16T18:54:25.935Z,0.80
2022-09-16T18:56:52.757Z,0.50
2022-09-16T18:59:22.553Z,0.60
2022-09-16T19:01:50.678Z,0.60
2022-09-16T19:04:19.444Z,1.02
2022-09-16T19:06:47.621Z,0.43
2022-09-16T19:09:17.368Z,0.70
2022-09-16T19:11:43.974Z,0.60
2022-09-16T19:14:12.385Z,0.75
2022-09-16T19:16:42.203Z,0.70
2022-09-16T19:19:09.798Z,0.40
2022-09-16T19:21:36.346Z,0.57
2022-09-16T19:24:04.727Z,0.60
2022-09-16T19:26:32.427Z,0.50
2022-09-16T19:29:01.221Z,0.60
2022-09-16T19:31:28.373Z,0.60
2022-09-16T19:33:59.091Z,0.50
2022-09-16T19:36:26.778Z,0.50
2022-09-16T19:38:53.444Z,0.43
2022-09-16T19:41:20.912Z,0.30
2022-09-16T19:43:47.317Z,0.55
2022-09-16T19:46:15.013Z,0.60
2022-09-16T19:48:42.941Z,0.77
2022-09-16T19:51:10.194Z,0.65
2022-09-16T19:53:37.234Z,0.60
2022-09-16T19:56:05.235Z,0.52
2022-09-16T19:58:33.299Z,0.60
2022-09-16T20:01:07.181Z,0.40
2022-09-16T20:03:34.706Z,0.52
2022-09-16T20:06:04.843Z,0.80
2022-09-16T20:08:31.758Z,0.50
2022-09-16T20:11:08.579Z,0.50
2022-09-16T20:13:45.755Z,0.60
2022-09-16T20:16:18.150Z,0.60
2022-09-16T20:18:47.418Z,0.43
2022-09-16T20:21:21.793Z,0.40
2022-09-16T20:23:48.258Z,0.32
2022-09-16T20:26:19.398Z,0.40
2022-09-16T20:28:51.008Z,0.28
2022-09-16T20:31:21.692Z,0.52
2022-09-16T20:33:48.175Z,0.63
2022-09-16T20:36:15.381Z,0.60
2022-09-16T20:38:41.970Z,0.47
2022-09-16T20:41:16.110Z,0.40
2022-09-16T20:43:42.826Z,0.50
2022-09-16T20:46:11.349Z,0.63
2022-09-16T20:48:38.101Z,0.60
2022-09-16T20:51:04.592Z,0.38
2022-09-16T20:53:31.027Z,0.55
2022-09-16T20:56:01.171Z,0.60
2022-09-16T20:58:27.627Z,0.30
2022-09-16T21:00:54.185Z,0.80
2022-09-16T21:03:20.634Z,0.52
2022-09-16T21:05:47.058Z,0.60
2022-09-16T21:08:13.360Z,0.40
2022-09-16T21:10:39.672Z,0.30
2022-09-16T21:13:06.624Z,0.38
2022-09-16T21:15:32.972Z,0.70
2022-09-16T21:17:59.323Z,0.52
2022-09-16T21:20:25.759Z,0.32
2022-09-16T21:22:52.089Z,1.95
2022-09-16T21:25:23.488Z,0.40
2022-09-16T21:27:49.796Z,0.80
2022-09-16T21:30:16.132Z,0.57
2022-09-16T21:32:42.996Z,0.60
2022-09-16T21:35:09.436Z,0.60
2022-09-16T21:37:35.804Z,0.60
2022-09-16T21:40:02.386Z,0.60
2022-09-16T21:42:28.721Z,0.57
2022-09-16T21:44:57.944Z,0.60
2022-09-16T21:47:24.316Z,0.50
2022-09-16T21:49:51.827Z,0.35
2022-09-16T21:52:18.245Z,0.38
2022-09-16T21:54:44.567Z,0.30
2022-09-16T21:57:10.921Z,0.50
2022-09-16T21:59:37.222Z,0.32
2022-09-16T22:02:04.027Z,0.40
2022-09-16T22:04:30.685Z,0.40
2022-09-16T22:06:57.027Z,0.45
2022-09-16T22:09:23.551Z,0.50
2022-09-16T22:11:50.242Z,0.30
2022-09-16T22:14:17.067Z,0.38
2022-09-16T22:16:44.140Z,0.30
2022-09-16T22:19:11.675Z,0.40
2022-09-16T22:21:39.338Z,0.60
2022-09-16T22:24:06.618Z,1.45
2022-09-16T22:26:33.344Z,0.40
2022-09-16T22:29:00.664Z,0.52
2022-09-16T22:31:28.014Z,0.40
2022-09-16T22:33:55.288Z,0.40
2022-09-16T22:36:22.781Z,0.40
2022-09-16T22:38:50.269Z,0.50
2022-09-16T22:41:17.641Z,1.00
2022-09-16T22:43:45.023Z,0.40
2022-09-16T22:46:21.570Z,0.30
2022-09-16T22:48:48.380Z,0.50
2022-09-16T22:51:15.443Z,0.40
2022-09-16T22:53:42.400Z,0.40
2022-09-16T22:56:13.072Z,0.50
2022-09-16T22:58:39.469Z,0.68
2022-09-16T23:01:07.286Z,1.13
2022-09-16T23:03:33.967Z,1.77
2022-09-16T23:06:01.563Z,2.20
2022-09-16T23:08:28.671Z,1.70
2022-09-16T23:10:55.629Z,1.35
2022-09-16T23:13:23.241Z,0.95
2022-09-16T23:15:53.949Z,1.00
2022-09-16T23:18:20.923Z,0.70
2022-09-16T23:20:57.467Z,0.50
2022-09-16T23:23:23.784Z,0.60
2022-09-16T23:25:50.102Z,0.75
2022-09-16T23:28:16.660Z,0.82
2022-09-16T23:30:43.032Z,1.00
2022-09-16T23:33:09.337Z,1.08
2022-09-16T23:35:35.672Z,1.00
2022-09-16T23:38:01.982Z,1.40
2022-09-16T23:40:31.937Z,1.23
2022-09-16T23:42:58.575Z,0.93
2022-09-16T23:45:24.867Z,1.15
2022-09-16T23:47:51.427Z,0.73
2022-09-16T23:50:17.763Z,0.88
2022-09-16T23:52:44.144Z,0.85
2022-09-16T23:55:10.522Z,0.90
2022-09-16T23:57:36.959Z,0.77
